createdAt,value
2023-04-23T00:01:03.151Z,0
2023-04-23T00:02:43.525Z,0
2023-04-23T00:04:23.911Z,0
2023-04-23T00:06:04.105Z,0
2023-04-23T00:07:44.410Z,0
2023-04-23T00:09:24.688Z,0
2023-04-23T00:11:05.063Z,0
2023-04-23T00:12:45.385Z,0
2023-04-23T00:14:25.728Z,0
2023-04-23T00:16:06.060Z,0
2023-04-23T00:17:46.462Z,0
2023-04-23T00:19:26.769Z,0
2023-04-23T00:21:07.080Z,0
2023-04-23T00:22:47.436Z,0
2023-04-23T00:24:27.753Z,0
2023-04-23T00:26:08.148Z,0
2023-04-23T00:27:48.431Z,0
2023-04-23T00:29:28.798Z,0
2023-04-23T00:31:09.108Z,0
2023-04-23T00:32:49.469Z,0
2023-04-23T00:34:29.749Z,0
2023-04-23T00:36:10.043Z,0
2023-04-23T00:37:50.340Z,0
2023-04-23T00:39:30.707Z,0
2023-04-23T00:41:11.004Z,0
2023-04-23T00:42:51.456Z,0
2023-04-23T00:44:31.710Z,0
2023-04-23T00:46:12.084Z,0
2023-04-23T00:47:52.377Z,0
2023-04-23T00:49:32.606Z,0
2023-04-23T00:51:12.941Z,0
2023-04-23T00:52:53.238Z,0
2023-04-23T00:54:33.588Z,0
2023-04-23T00:56:13.966Z,0
2023-04-23T00:57:54.313Z,0
2023-04-23T00:59:34.674Z,0
2023-04-23T01:01:15.110Z,0
2023-04-23T01:02:55.380Z,0
2023-04-23T01:04:35.577Z,0
2023-04-23T01:06:15.857Z,0
2023-04-23T01:07:56.183Z,0
2023-04-23T01:09:36.540Z,0
2023-04-23T01:11:16.825Z,0
2023-04-23T01:12:57.139Z,0
2023-04-23T01:14:37.513Z,0
2023-04-23T01:16:17.960Z,0
2023-04-23T01:17:58.190Z,0
2023-04-23T01:19:38.604Z,0
2023-04-23T01:21:18.912Z,0
2023-04-23T01:22:59.237Z,0
2023-04-23T01:24:39.735Z,0
2023-04-23T01:26:19.877Z,0
2023-04-23T01:28:00.188Z,0
2023-04-23T01:29:40.584Z,0
2023-04-23T01:31:21.040Z,0
2023-04-23T01:33:01.334Z,0
2023-04-23T01:34:41.967Z,0
2023-04-23T01:36:22.056Z,0
2023-04-23T01:38:02.375Z,0
2023-04-23T01:39:42.781Z,0
2023-04-23T01:41:23.154Z,0
2023-04-23T01:43:03.504Z,0
2023-04-23T01:44:43.799Z,0
2023-04-23T01:46:24.238Z,0
2023-04-23T01:48:04.532Z,0
2023-04-23T01:49:44.889Z,0
2023-04-23T01:51:25.230Z,0
2023-04-23T01:53:05.578Z,0
2023-04-23T01:54:45.933Z,0
2023-04-23T01:56:26.227Z,0
2023-04-23T01:58:06.571Z,0
2023-04-23T01:59:46.916Z,0
2023-04-23T02:01:27.361Z,0
2023-04-23T02:03:07.909Z,0
2023-04-23T02:04:48.002Z,0
2023-04-23T02:06:28.441Z,0
2023-04-23T02:09:49.110Z,0
2023-04-23T02:11:29.424Z,0
2023-04-23T02:14:50.228Z,0
2023-04-23T02:16:30.538Z,0
2023-04-23T02:18:10.802Z,0
2023-04-23T02:19:51.092Z,0
2023-04-23T02:21:31.411Z,0
2023-04-23T02:23:11.802Z,0
2023-04-23T02:24:52.202Z,0
2023-04-23T02:26:32.523Z,0
2023-04-23T02:28:12.847Z,0
2023-04-23T02:29:53.139Z,0
2023-04-23T02:31:33.434Z,0
2023-04-23T02:33:13.874Z,0
2023-04-23T02:34:54.224Z,0
2023-04-23T02:36:34.545Z,0
2023-04-23T02:38:14.833Z,0
2023-04-23T02:39:55.180Z,0
2023-04-23T02:41:35.474Z,0
2023-04-23T02:43:15.809Z,0
2023-04-23T02:44:56.147Z,0
2023-04-23T02:46:36.564Z,0
2023-04-23T02:48:16.897Z,0
2023-04-23T02:49:57.215Z,0
2023-04-23T02:51:37.537Z,0
2023-04-23T02:53:17.891Z,0
2023-04-23T02:54:58.263Z,0
2023-04-23T02:56:38.648Z,0
2023-04-23T02:58:18.997Z,0
2023-04-23T02:59:59.344Z,0
2023-04-23T03:01:39.664Z,0
2023-04-23T03:03:20.211Z,0
2023-04-23T03:05:00.385Z,0
2023-04-23T03:06:40.715Z,0
2023-04-23T03:08:21.043Z,0
2023-04-23T03:10:01.311Z,0
2023-04-23T03:11:41.733Z,0
2023-04-23T03:13:22.066Z,0
2023-04-23T03:15:02.505Z,0
2023-04-23T03:16:42.839Z,0
2023-04-23T03:18:23.086Z,0
2023-04-23T03:20:03.367Z,0
2023-04-23T03:21:43.677Z,0
2023-04-23T03:23:24.028Z,0
2023-04-23T03:25:04.400Z,0
2023-04-23T03:26:44.717Z,0
2023-04-23T03:28:25.059Z,0
2023-04-23T03:30:05.487Z,0
2023-04-23T03:31:45.862Z,0
2023-04-23T03:33:26.303Z,0
2023-04-23T03:35:06.697Z,0
2023-04-23T03:36:46.989Z,0
2023-04-23T03:38:27.332Z,0
2023-04-23T03:40:07.844Z,0
2023-04-23T03:41:48.008Z,0
2023-04-23T03:43:28.354Z,0
2023-04-23T03:45:08.721Z,0
2023-04-23T03:46:48.990Z,0
2023-04-23T03:48:29.392Z,0
2023-04-23T03:50:09.687Z,0
2023-04-23T03:51:49.952Z,0
2023-04-23T03:53:30.275Z,0
2023-04-23T03:55:10.562Z,0
2023-04-23T03:56:50.885Z,0
2023-04-23T03:58:31.192Z,0
2023-04-23T04:00:11.455Z,0
2023-04-23T04:01:51.804Z,0
2023-04-23T04:03:32.290Z,0
2023-04-23T04:05:12.615Z,0
2023-04-23T04:06:52.706Z,0
2023-04-23T04:08:32.994Z,1
2023-04-23T04:10:13.313Z,1
2023-04-23T04:11:53.674Z,1
2023-04-23T04:13:34.029Z,1
2023-04-23T04:15:14.432Z,1
2023-04-23T04:16:54.775Z,2
2023-04-23T04:18:35.066Z,2
2023-04-23T04:20:15.398Z,3
2023-04-23T04:21:55.783Z,3
2023-04-23T04:23:36.037Z,3
2023-04-23T04:25:16.404Z,4
2023-04-23T04:26:56.737Z,3
2023-04-23T04:28:36.977Z,4
2023-04-23T04:30:17.363Z,4
2023-04-23T04:31:57.685Z,5
2023-04-23T04:33:38.020Z,6
2023-04-23T04:35:18.398Z,6
2023-04-23T04:36:58.719Z,7
2023-04-23T04:38:39.024Z,7
2023-04-23T04:40:19.383Z,8
2023-04-23T04:41:59.632Z,8
2023-04-23T04:43:39.995Z,9
2023-04-23T04:45:20.384Z,9
2023-04-23T04:47:00.861Z,10
2023-04-23T04:48:40.992Z,10
2023-04-23T04:50:21.297Z,10
2023-04-23T04:52:01.653Z,10
2023-04-23T04:53:41.995Z,11
2023-04-23T04:55:22.442Z,12
2023-04-23T04:57:02.811Z,13
2023-04-23T04:58:43.156Z,13
2023-04-23T05:00:23.570Z,12
2023-04-23T05:02:04.022Z,11
2023-04-23T05:03:44.459Z,11
2023-04-23T05:05:24.622Z,11
2023-04-23T05:07:04.963Z,11
2023-04-23T05:08:45.308Z,11
2023-04-23T05:10:25.634Z,11
2023-04-23T05:12:05.956Z,11
2023-04-23T05:13:46.281Z,12
2023-04-23T05:15:26.663Z,14
2023-04-23T05:17:06.952Z,15
2023-04-23T05:18:47.262Z,17
2023-04-23T05:20:27.597Z,21
2023-04-23T05:22:07.982Z,22
2023-04-23T05:23:48.266Z,24
2023-04-23T05:25:28.612Z,25
2023-04-23T05:27:08.962Z,25
2023-04-23T05:28:49.347Z,26
2023-04-23T05:30:29.670Z,28
2023-04-23T05:32:10.140Z,30
2023-04-23T05:33:51.006Z,32
2023-04-23T05:35:30.754Z,34
2023-04-23T05:37:11.090Z,38
2023-04-23T05:38:51.375Z,42
2023-04-23T05:40:31.671Z,44
2023-04-23T05:42:11.987Z,45
2023-04-23T05:43:52.293Z,47
2023-04-23T05:45:32.618Z,48
2023-04-23T05:47:12.905Z,50
2023-04-23T05:48:53.216Z,54
2023-04-23T05:50:33.501Z,59
2023-04-23T05:52:13.771Z,66
2023-04-23T05:53:54.082Z,74
2023-04-23T05:55:34.411Z,75
2023-04-23T05:57:14.736Z,72
2023-04-23T05:58:55.121Z,73
2023-04-23T06:00:35.562Z,76
2023-04-23T06:02:15.884Z,78
2023-04-23T06:03:56.391Z,81
2023-04-23T06:05:36.584Z,84
2023-04-23T06:07:16.960Z,88
2023-04-23T06:08:57.248Z,89
2023-04-23T06:10:37.571Z,91
2023-04-23T06:12:17.873Z,96
2023-04-23T06:13:58.176Z,100
2023-04-23T06:15:38.559Z,102
2023-04-23T06:17:18.791Z,102
2023-04-23T06:18:59.120Z,104
2023-04-23T06:20:39.379Z,107
2023-04-23T06:22:19.708Z,104
2023-04-23T06:24:00.026Z,106
2023-04-23T06:25:40.319Z,110
2023-04-23T06:27:20.653Z,114
2023-04-23T06:29:01.018Z,119
2023-04-23T06:30:41.412Z,116
2023-04-23T06:32:21.752Z,117
2023-04-23T06:34:02.112Z,127
2023-04-23T06:35:42.491Z,142
2023-04-23T06:37:22.791Z,120
2023-04-23T06:39:03.153Z,122
2023-04-23T06:40:43.459Z,123
2023-04-23T06:42:23.874Z,172
2023-04-23T06:44:04.235Z,138
2023-04-23T06:45:44.512Z,112
2023-04-23T06:47:24.889Z,115
2023-04-23T06:49:05.219Z,125
2023-04-23T06:50:45.544Z,138
2023-04-23T06:52:25.876Z,111
2023-04-23T06:54:06.216Z,112
2023-04-23T06:55:46.569Z,117
2023-04-23T06:57:26.958Z,135
2023-04-23T06:59:07.285Z,202
2023-04-23T07:00:47.678Z,189
2023-04-23T07:02:27.990Z,197
2023-04-23T07:04:08.389Z,213
2023-04-23T07:05:48.595Z,200
2023-04-23T07:07:28.941Z,135
2023-04-23T07:09:09.295Z,195
2023-04-23T07:10:49.764Z,217
2023-04-23T07:12:30.162Z,214
2023-04-23T07:14:10.533Z,223
2023-04-23T07:15:50.890Z,220
2023-04-23T07:17:31.371Z,223
2023-04-23T07:19:11.663Z,234
2023-04-23T07:20:52.014Z,241
2023-04-23T07:22:32.304Z,238
2023-04-23T07:24:12.679Z,247
2023-04-23T07:25:53.071Z,265
2023-04-23T07:27:33.432Z,288
2023-04-23T07:29:13.792Z,305
2023-04-23T07:30:54.159Z,317
2023-04-23T07:32:34.501Z,314
2023-04-23T07:34:14.887Z,305
2023-04-23T07:35:55.213Z,287
2023-04-23T07:37:35.598Z,276
2023-04-23T07:39:15.924Z,276
2023-04-23T07:40:56.234Z,298
2023-04-23T07:42:36.587Z,327
2023-04-23T07:44:17.005Z,265
2023-04-23T07:45:57.499Z,363
2023-04-23T07:47:37.756Z,351
2023-04-23T07:49:18.082Z,201
2023-04-23T07:50:58.420Z,307
2023-04-23T07:52:38.844Z,244
2023-04-23T07:54:19.225Z,264
2023-04-23T07:55:59.581Z,259
2023-04-23T07:57:39.940Z,237
2023-04-23T07:59:20.327Z,379
2023-04-23T08:01:00.676Z,369
2023-04-23T08:02:41.266Z,369
2023-04-23T08:04:21.915Z,380
2023-04-23T08:06:01.720Z,378
2023-04-23T08:07:42.055Z,361
2023-04-23T08:09:22.414Z,354
2023-04-23T08:11:02.645Z,366
2023-04-23T08:12:42.947Z,388
2023-04-23T08:14:23.281Z,416
2023-04-23T08:15:21.714Z,0
2023-04-23T08:17:01.971Z,428
2023-04-23T08:18:46.138Z,404
2023-04-23T08:20:22.831Z,372
2023-04-23T08:22:02.986Z,354
2023-04-23T08:23:43.382Z,336
2023-04-23T08:25:23.707Z,329
2023-04-23T08:27:04.015Z,334
2023-04-23T08:28:44.453Z,348
2023-04-23T08:30:24.911Z,353
2023-04-23T08:32:05.346Z,357
2023-04-23T08:33:45.703Z,368
2023-04-23T08:35:26.089Z,391
2023-04-23T08:37:09.945Z,413
2023-04-23T08:38:46.799Z,427
2023-04-23T08:40:27.084Z,439
2023-04-23T08:42:07.455Z,446
2023-04-23T08:43:47.955Z,455
2023-04-23T08:45:28.208Z,448
2023-04-23T08:47:08.538Z,442
2023-04-23T08:48:48.878Z,426
2023-04-23T08:50:29.203Z,421
2023-04-23T08:52:09.561Z,430
2023-04-23T08:53:49.980Z,449
2023-04-23T08:55:30.392Z,463
2023-04-23T08:57:10.734Z,460
2023-04-23T08:58:51.117Z,451
2023-04-23T09:00:31.562Z,432
2023-04-23T09:02:11.838Z,439
2023-04-23T09:03:52.243Z,454
2023-04-23T09:05:32.571Z,461
2023-04-23T09:07:12.968Z,475
2023-04-23T09:08:53.299Z,477
2023-04-23T09:10:33.684Z,479
2023-04-23T09:12:14.044Z,488
2023-04-23T09:13:54.402Z,495
2023-04-23T09:15:34.793Z,538
2023-04-23T09:17:15.127Z,574
2023-04-23T09:18:55.425Z,251
2023-04-23T09:20:35.853Z,500
2023-04-23T09:22:16.210Z,238
2023-04-23T09:23:56.550Z,558
2023-04-23T09:25:36.851Z,578
2023-04-23T09:27:17.246Z,549
2023-04-23T09:28:57.544Z,214
2023-04-23T09:30:37.961Z,472
2023-04-23T09:32:18.401Z,587
2023-04-23T09:33:58.675Z,507
2023-04-23T09:35:40.743Z,208
2023-04-23T09:37:19.367Z,215
2023-04-23T09:38:59.710Z,217
2023-04-23T09:40:40.027Z,201
2023-04-23T09:42:20.387Z,250
2023-04-23T09:44:00.644Z,203
2023-04-23T09:45:41.035Z,606
2023-04-23T09:47:22.598Z,520
2023-04-23T09:49:01.721Z,423
2023-04-23T09:50:42.037Z,575
2023-04-23T09:52:22.446Z,478
2023-04-23T09:54:02.770Z,616
2023-04-23T09:55:43.207Z,607
2023-04-23T09:57:23.551Z,620
2023-04-23T09:59:03.830Z,648
2023-04-23T10:00:44.201Z,446
2023-04-23T10:02:24.685Z,329
2023-04-23T10:04:05.090Z,438
2023-04-23T10:06:00.254Z,572
2023-04-23T10:07:25.624Z,540
2023-04-23T10:09:06.053Z,651
2023-04-23T10:11:00.081Z,348
2023-04-23T10:12:41.102Z,507
2023-04-23T10:14:07.079Z,360
2023-04-23T10:15:47.467Z,328
2023-04-23T10:17:27.939Z,326
2023-04-23T10:19:08.130Z,343
2023-04-23T10:20:48.438Z,285
2023-04-23T10:22:28.821Z,248
2023-04-23T10:24:09.162Z,225
2023-04-23T10:25:49.501Z,217
2023-04-23T10:27:44.553Z,217
2023-04-23T10:29:10.228Z,230
2023-04-23T10:30:50.613Z,253
2023-04-23T10:32:30.974Z,301
2023-04-23T10:34:11.330Z,455
2023-04-23T10:35:51.604Z,305
2023-04-23T10:37:31.931Z,267
2023-04-23T10:39:12.316Z,225
2023-04-23T10:40:52.576Z,200
2023-04-23T10:42:32.925Z,225
2023-04-23T10:44:15.965Z,268
2023-04-23T10:45:53.513Z,341
2023-04-23T10:47:33.852Z,455
2023-04-23T10:49:14.143Z,737
2023-04-23T10:52:34.919Z,308
2023-04-23T10:54:15.294Z,302
2023-04-23T10:55:55.632Z,338
2023-04-23T10:57:36.042Z,725
2023-04-23T10:59:16.473Z,238
2023-04-23T11:00:56.780Z,204
2023-04-23T11:02:37.224Z,186
2023-04-23T11:04:17.931Z,185
2023-04-23T11:05:57.843Z,235
2023-04-23T11:07:38.126Z,277
2023-04-23T11:09:18.433Z,274
2023-04-23T11:10:58.745Z,308
2023-04-23T11:12:39.048Z,338
2023-04-23T11:14:19.388Z,500
2023-04-23T11:15:59.708Z,376
2023-04-23T11:17:39.921Z,332
2023-04-23T11:19:20.825Z,331
2023-04-23T11:21:00.585Z,397
2023-04-23T11:22:40.863Z,463
2023-04-23T11:24:21.195Z,797
2023-04-23T11:26:01.483Z,414
2023-04-23T11:27:41.744Z,630
2023-04-23T11:29:22.074Z,739
2023-04-23T11:31:02.394Z,567
2023-04-23T11:32:42.804Z,685
2023-04-23T11:34:23.004Z,413
2023-04-23T11:36:03.270Z,250
2023-04-23T11:37:43.678Z,469
2023-04-23T11:39:24.034Z,287
2023-04-23T11:41:04.387Z,236
2023-04-23T11:42:44.622Z,202
2023-04-23T11:44:25.007Z,163
2023-04-23T11:46:05.376Z,141
2023-04-23T11:47:45.678Z,129
2023-04-23T11:49:25.986Z,121
2023-04-23T11:51:06.350Z,139
2023-04-23T11:52:46.657Z,183
2023-04-23T11:54:26.998Z,196
2023-04-23T11:56:07.415Z,197
2023-04-23T11:57:47.722Z,206
2023-04-23T11:59:27.989Z,237
2023-04-23T12:01:08.331Z,269
2023-04-23T12:02:48.762Z,332
2023-04-23T12:04:29.171Z,261
2023-04-23T12:06:09.344Z,262
2023-04-23T12:07:49.743Z,254
2023-04-23T12:09:30.104Z,223
2023-04-23T12:11:10.413Z,178
2023-04-23T12:12:50.801Z,132
2023-04-23T12:14:31.278Z,115
2023-04-23T12:16:11.642Z,131
2023-04-23T12:17:51.955Z,160
2023-04-23T12:19:32.304Z,194
2023-04-23T12:21:12.712Z,237
2023-04-23T12:22:53.009Z,276
2023-04-23T12:24:33.391Z,321
2023-04-23T12:26:13.708Z,374
2023-04-23T12:27:54.049Z,411
2023-04-23T12:29:34.313Z,436
2023-04-23T12:31:14.699Z,455
2023-04-23T12:32:55.065Z,397
2023-04-23T12:34:35.327Z,351
2023-04-23T12:36:15.637Z,348
2023-04-23T12:37:56.060Z,281
2023-04-23T12:39:36.448Z,235
2023-04-23T12:41:16.787Z,233
2023-04-23T12:42:57.200Z,264
2023-04-23T12:44:37.440Z,288
2023-04-23T12:46:17.746Z,291
2023-04-23T12:47:58.167Z,335
2023-04-23T12:49:38.487Z,578
2023-04-23T12:51:18.853Z,578
2023-04-23T12:52:59.253Z,581
2023-04-23T12:54:39.521Z,617
2023-04-23T12:56:20.007Z,683
2023-04-23T12:58:00.334Z,660
2023-04-23T12:59:40.881Z,618
2023-04-23T13:01:21.025Z,630
2023-04-23T13:03:01.502Z,478
2023-04-23T13:04:41.781Z,378
2023-04-23T13:06:22.127Z,317
2023-04-23T13:08:02.538Z,366
2023-04-23T13:09:43.100Z,385
2023-04-23T13:11:23.078Z,479
2023-04-23T13:13:03.354Z,448
2023-04-23T13:14:43.631Z,537
2023-04-23T13:16:23.991Z,536
2023-04-23T13:18:04.313Z,267
2023-04-23T13:19:44.601Z,228
2023-04-23T13:21:26.248Z,238
2023-04-23T13:23:05.164Z,278
2023-04-23T13:24:45.468Z,261
2023-04-23T13:26:25.788Z,253
2023-04-23T13:28:06.021Z,248
2023-04-23T13:29:46.388Z,246
2023-04-23T13:31:26.667Z,248
2023-04-23T13:33:07.005Z,242
2023-04-23T13:34:47.273Z,218
2023-04-23T13:36:27.671Z,208
2023-04-23T13:38:08.029Z,196
2023-04-23T13:39:48.427Z,184
2023-04-23T13:41:28.792Z,173
2023-04-23T13:43:09.194Z,164
2023-04-23T13:44:49.567Z,157
2023-04-23T13:46:30.096Z,155
2023-04-23T13:48:10.326Z,159
2023-04-23T13:49:50.651Z,171
2023-04-23T13:51:34.707Z,183
2023-04-23T13:53:11.366Z,190
2023-04-23T13:54:51.742Z,186
2023-04-23T13:56:32.206Z,179
2023-04-23T13:58:12.535Z,179
2023-04-23T13:59:52.919Z,191
2023-04-23T14:01:33.335Z,211
2023-04-23T14:03:13.653Z,227
2023-04-23T14:04:54.001Z,252
2023-04-23T14:06:34.115Z,264
2023-04-23T14:08:14.454Z,280
2023-04-23T14:09:54.830Z,260
2023-04-23T14:11:35.271Z,237
2023-04-23T14:13:15.639Z,256
2023-04-23T14:14:55.913Z,251
2023-04-23T14:16:36.309Z,324
2023-04-23T14:18:16.702Z,280
2023-04-23T14:19:57.033Z,294
2023-04-23T14:21:37.322Z,323
2023-04-23T14:23:17.618Z,293
2023-04-23T14:24:58.045Z,304
2023-04-23T14:28:18.758Z,425
2023-04-23T14:29:59.152Z,375
2023-04-23T14:31:39.525Z,430
2023-04-23T14:33:19.830Z,359
2023-04-23T14:35:00.159Z,382
2023-04-23T14:36:40.467Z,351
2023-04-23T14:38:20.788Z,298
2023-04-23T14:40:01.145Z,277
2023-04-23T14:41:41.479Z,281
2023-04-23T14:43:21.766Z,338
2023-04-23T14:45:02.069Z,355
2023-04-23T14:46:42.441Z,316
2023-04-23T14:48:22.839Z,270
2023-04-23T14:50:03.219Z,250
2023-04-23T14:51:43.566Z,321
2023-04-23T14:53:23.909Z,391
2023-04-23T14:55:04.225Z,363
2023-04-23T14:56:44.584Z,313
2023-04-23T14:58:24.921Z,286
2023-04-23T15:00:05.302Z,285
2023-04-23T15:01:45.619Z,247
2023-04-23T15:03:26.022Z,224
2023-04-23T15:05:06.318Z,203
2023-04-23T15:06:46.631Z,193
2023-04-23T15:08:26.948Z,188
2023-04-23T15:10:07.352Z,187
2023-04-23T15:11:47.697Z,186
2023-04-23T15:13:28.076Z,182
2023-04-23T15:15:08.397Z,177
2023-04-23T15:16:50.027Z,165
2023-04-23T15:18:29.104Z,152
2023-04-23T15:20:09.429Z,135
2023-04-23T15:21:49.784Z,119
2023-04-23T15:23:30.183Z,111
2023-04-23T15:25:10.510Z,112
2023-04-23T15:26:50.891Z,115
2023-04-23T15:28:31.237Z,117
2023-04-23T15:30:11.505Z,113
2023-04-23T15:31:51.938Z,105
2023-04-23T15:33:32.289Z,100
2023-04-23T15:35:12.672Z,97
2023-04-23T15:36:52.988Z,94
2023-04-23T15:38:33.291Z,91
2023-04-23T15:40:13.634Z,88
2023-04-23T15:41:53.952Z,87
2023-04-23T15:43:34.261Z,84
2023-04-23T15:45:14.574Z,83
2023-04-23T15:46:54.913Z,84
2023-04-23T15:48:35.330Z,86
2023-04-23T15:50:15.603Z,90
2023-04-23T15:51:55.996Z,103
2023-04-23T15:53:36.293Z,122
2023-04-23T15:55:16.682Z,142
2023-04-23T15:56:57.052Z,225
2023-04-23T15:58:37.393Z,232
2023-04-23T16:00:17.855Z,215
2023-04-23T16:01:58.158Z,196
2023-04-23T16:03:38.640Z,175
2023-04-23T16:05:18.953Z,160
2023-04-23T16:06:59.283Z,150
2023-04-23T16:08:39.661Z,149
2023-04-23T16:10:19.996Z,144
2023-04-23T16:12:00.393Z,134
2023-04-23T16:13:40.747Z,127
2023-04-23T16:15:21.122Z,120
2023-04-23T16:17:01.614Z,115
2023-04-23T16:18:41.932Z,111
2023-04-23T16:20:22.274Z,107
2023-04-23T16:22:02.734Z,104
2023-04-23T16:23:43.088Z,101
2023-04-23T16:25:23.359Z,95
2023-04-23T16:27:03.661Z,91
2023-04-23T16:28:44.553Z,86
2023-04-23T16:30:24.422Z,84
2023-04-23T16:32:04.879Z,82
2023-04-23T16:33:45.296Z,80
2023-04-23T16:35:25.640Z,78
2023-04-23T16:37:06.059Z,77
2023-04-23T16:38:48.047Z,76
2023-04-23T16:40:26.780Z,76
2023-04-23T16:42:07.057Z,76
2023-04-23T16:43:47.482Z,75
2023-04-23T16:45:27.737Z,75
2023-04-23T16:47:08.058Z,74
2023-04-23T16:48:48.471Z,73
2023-04-23T16:50:28.855Z,71
2023-04-23T16:52:09.229Z,70
2023-04-23T16:53:49.556Z,70
2023-04-23T16:55:29.911Z,71
2023-04-23T16:57:10.271Z,71
2023-04-23T16:58:50.652Z,71
2023-04-23T17:00:31.006Z,69
2023-04-23T17:02:11.527Z,65
2023-04-23T17:03:51.878Z,61
2023-04-23T17:05:32.124Z,60
2023-04-23T17:07:12.592Z,59
2023-04-23T17:08:53.022Z,58
2023-04-23T17:10:33.401Z,56
2023-04-23T17:12:13.745Z,54
2023-04-23T17:13:54.090Z,50
2023-04-23T17:15:34.472Z,48
2023-04-23T17:17:14.891Z,45
2023-04-23T17:18:55.326Z,43
2023-04-23T17:20:35.683Z,43
2023-04-23T17:22:16.128Z,44
2023-04-23T17:23:56.431Z,47
2023-04-23T17:25:36.895Z,48
2023-04-23T17:27:17.280Z,50
2023-04-23T17:28:57.676Z,50
2023-04-23T17:30:38.028Z,49
2023-04-23T17:32:18.580Z,46
2023-04-23T17:33:58.909Z,43
2023-04-23T17:35:39.369Z,39
2023-04-23T17:37:19.745Z,36
2023-04-23T17:39:00.081Z,32
2023-04-23T17:40:40.518Z,28
2023-04-23T17:42:20.938Z,26
2023-04-23T17:44:01.356Z,23
2023-04-23T17:45:41.782Z,21
2023-04-23T17:47:22.180Z,19
2023-04-23T17:49:02.534Z,17
2023-04-23T17:50:42.962Z,15
2023-04-23T17:52:23.414Z,14
2023-04-23T17:54:03.828Z,12
2023-04-23T17:55:44.187Z,10
2023-04-23T17:57:24.568Z,8
2023-04-23T17:59:04.949Z,7
2023-04-23T18:00:45.463Z,7
2023-04-23T18:02:25.921Z,7
2023-04-23T18:04:06.421Z,7
2023-04-23T18:05:46.674Z,8
2023-04-23T18:07:27.071Z,9
2023-04-23T18:09:07.499Z,10
2023-04-23T18:10:47.891Z,9
2023-04-23T18:12:28.316Z,8
2023-04-23T18:14:08.734Z,6
2023-04-23T18:15:49.164Z,5
2023-04-23T18:17:29.565Z,4
2023-04-23T18:19:09.974Z,3
2023-04-23T18:20:50.392Z,3
2023-04-23T18:22:30.756Z,3
2023-04-23T18:24:11.101Z,3
2023-04-23T18:25:51.446Z,3
2023-04-23T18:27:34.046Z,3
2023-04-23T18:29:12.266Z,2
2023-04-23T18:30:52.733Z,2
2023-04-23T18:32:34.749Z,1
2023-04-23T18:34:13.566Z,1
2023-04-23T18:35:53.927Z,1
2023-04-23T18:37:34.300Z,0
2023-04-23T18:39:14.785Z,0
2023-04-23T18:40:55.149Z,0
2023-04-23T18:42:35.551Z,0
2023-04-23T18:44:15.928Z,0
2023-04-23T18:45:56.484Z,0
2023-04-23T18:47:36.887Z,0
2023-04-23T18:49:17.130Z,0
2023-04-23T18:50:57.650Z,0
2023-04-23T18:52:38.114Z,0
2023-04-23T18:54:18.540Z,0
2023-04-23T18:55:58.906Z,0
2023-04-23T18:57:39.363Z,0
2023-04-23T18:59:19.833Z,0
2023-04-23T19:01:00.181Z,0
2023-04-23T19:02:40.621Z,0
2023-04-23T19:04:21.030Z,0
2023-04-23T19:06:01.254Z,0
2023-04-23T19:07:41.663Z,0
2023-04-23T19:09:22.032Z,0
2023-04-23T19:11:02.453Z,0
2023-04-23T19:12:42.891Z,0
2023-04-23T19:14:23.329Z,0
2023-04-23T19:16:03.843Z,0
2023-04-23T19:17:44.284Z,0
2023-04-23T19:19:24.727Z,0
2023-04-23T19:21:05.165Z,0
2023-04-23T19:22:45.585Z,0
2023-04-23T19:24:26.026Z,0
2023-04-23T19:26:06.307Z,0
2023-04-23T19:27:46.617Z,0
2023-04-23T19:29:27.023Z,0
2023-04-23T19:31:07.473Z,0
2023-04-23T19:32:47.875Z,0
2023-04-23T19:34:28.293Z,0
2023-04-23T19:36:08.614Z,0
2023-04-23T19:37:49.002Z,0
2023-04-23T19:39:29.449Z,0
2023-04-23T19:41:09.793Z,0
2023-04-23T19:42:50.257Z,0
2023-04-23T19:44:30.713Z,0
2023-04-23T19:46:11.105Z,0
2023-04-23T19:47:51.628Z,0
2023-04-23T19:49:32.008Z,0
2023-04-23T19:51:12.403Z,0
2023-04-23T19:52:52.850Z,0
2023-04-23T19:54:33.254Z,0
2023-04-23T19:56:13.584Z,0
2023-04-23T19:57:53.995Z,0
2023-04-23T19:59:34.411Z,0
2023-04-23T20:01:14.750Z,0
2023-04-23T20:02:55.164Z,0
2023-04-23T20:04:35.345Z,0
2023-04-23T20:06:15.689Z,0
2023-04-23T20:07:56.099Z,0
2023-04-23T20:09:36.547Z,0
2023-04-23T20:11:16.927Z,0
2023-04-23T20:12:57.324Z,0
2023-04-23T20:14:37.740Z,0
2023-04-23T20:16:18.124Z,0
2023-04-23T20:17:58.555Z,0
2023-04-23T20:19:38.890Z,0
2023-04-23T20:21:19.235Z,0
2023-04-23T20:22:59.698Z,0
2023-04-23T20:24:40.071Z,0
2023-04-23T20:26:20.433Z,0
2023-04-23T20:28:00.782Z,0
2023-04-23T20:29:41.551Z,0
2023-04-23T20:31:21.540Z,0
2023-04-23T20:33:01.989Z,0
2023-04-23T20:34:42.333Z,0
2023-04-23T20:36:22.664Z,0
2023-04-23T20:38:03.110Z,0
2023-04-23T20:39:43.959Z,0
2023-04-23T20:41:23.902Z,0
2023-04-23T20:43:04.308Z,0
2023-04-23T20:44:44.616Z,0
2023-04-23T20:46:24.992Z,0
2023-04-23T20:48:05.379Z,0
2023-04-23T20:49:45.522Z,0
2023-04-23T20:51:25.834Z,0
2023-04-23T20:53:06.219Z,0
2023-04-23T20:54:46.532Z,0
2023-04-23T20:56:26.924Z,0
2023-04-23T20:58:07.310Z,0
2023-04-23T20:59:47.748Z,0
2023-04-23T21:01:28.154Z,0
2023-04-23T21:03:08.653Z,0
2023-04-23T21:04:49.039Z,0
2023-04-23T21:06:29.336Z,0
2023-04-23T21:08:09.739Z,0
2023-04-23T21:09:50.205Z,0
2023-04-23T21:11:30.577Z,0
2023-04-23T21:13:11.016Z,0
2023-04-23T21:14:51.409Z,0
2023-04-23T21:16:31.998Z,0
2023-04-23T21:18:12.361Z,0
2023-04-23T21:19:52.763Z,0
2023-04-23T21:21:33.209Z,0
2023-04-23T21:23:13.551Z,0
2023-04-23T21:24:53.861Z,0
2023-04-23T21:26:34.157Z,0
2023-04-23T21:28:14.462Z,0
2023-04-23T21:29:54.749Z,0
2023-04-23T21:31:35.093Z,0
2023-04-23T21:33:15.378Z,0
2023-04-23T21:34:55.671Z,0
2023-04-23T21:36:35.988Z,0
2023-04-23T21:38:16.420Z,0
2023-04-23T21:39:56.933Z,0
2023-04-23T21:41:37.388Z,0
2023-04-23T21:43:17.833Z,0
2023-04-23T21:44:58.298Z,0
2023-04-23T21:46:38.719Z,0
2023-04-23T21:48:19.052Z,0
2023-04-23T21:49:59.495Z,0
2023-04-23T21:51:39.927Z,0
2023-04-23T21:53:20.370Z,0
2023-04-23T21:55:00.876Z,0
2023-04-23T21:56:41.359Z,0
2023-04-23T21:58:21.775Z,0
2023-04-23T22:00:02.225Z,0
2023-04-23T22:01:42.552Z,0
2023-04-23T22:03:32.494Z,0
2023-04-23T22:05:03.201Z,0
2023-04-23T22:06:43.632Z,0
2023-04-23T22:08:23.970Z,0
2023-04-23T22:10:04.487Z,0
2023-04-23T22:12:00.783Z,0
2023-04-23T22:13:25.210Z,0
2023-04-23T22:15:05.572Z,0
2023-04-23T22:16:46.025Z,0
2023-04-23T22:18:26.419Z,0
2023-04-23T22:20:06.842Z,0
2023-04-23T22:21:47.258Z,0
2023-04-23T22:23:27.621Z,0
2023-04-23T22:25:07.981Z,0
2023-04-23T22:26:48.468Z,0
2023-04-23T22:28:28.818Z,0
2023-04-23T22:30:09.263Z,0
2023-04-23T22:31:49.743Z,0
2023-04-23T22:33:30.080Z,0
2023-04-23T22:35:10.445Z,0
2023-04-23T22:36:50.871Z,0
2023-04-23T22:38:31.262Z,0
2023-04-23T22:40:11.580Z,0
2023-04-23T22:41:51.838Z,0
2023-04-23T22:43:32.159Z,0
2023-04-23T22:45:12.503Z,0
2023-04-23T22:46:52.890Z,0
2023-04-23T22:48:33.252Z,0
2023-04-23T22:50:13.607Z,0
2023-04-23T22:51:54.111Z,0
2023-04-23T22:53:34.461Z,0
2023-04-23T22:55:14.874Z,0
2023-04-23T22:56:55.257Z,0
2023-04-23T22:58:35.649Z,0
2023-04-23T23:00:16.061Z,0
2023-04-23T23:01:56.552Z,0
2023-04-23T23:03:36.937Z,0
2023-04-23T23:05:17.380Z,0
2023-04-23T23:06:57.818Z,0
2023-04-23T23:08:38.209Z,0
2023-04-23T23:10:18.577Z,0
2023-04-23T23:11:58.966Z,0
2023-04-23T23:13:39.470Z,0
2023-04-23T23:15:19.884Z,0
2023-04-23T23:17:00.311Z,0
2023-04-23T23:18:40.666Z,0
2023-04-23T23:20:21.092Z,0
2023-04-23T23:22:01.590Z,0
2023-04-23T23:23:41.961Z,0
2023-04-23T23:25:22.397Z,0
2023-04-23T23:27:02.830Z,0
2023-04-23T23:28:43.250Z,0
2023-04-23T23:30:23.582Z,0
2023-04-23T23:32:04.043Z,0
2023-04-23T23:33:44.517Z,0
2023-04-23T23:35:24.930Z,0
2023-04-23T23:37:05.311Z,0
2023-04-23T23:38:45.719Z,0
2023-04-23T23:40:26.057Z,0
2023-04-23T23:42:06.432Z,0
2023-04-23T23:43:46.854Z,0
2023-04-23T23:45:27.227Z,0
2023-04-23T23:47:07.640Z,0
2023-04-23T23:48:47.930Z,0
2023-04-23T23:50:28.284Z,0
2023-04-23T23:52:08.614Z,0
2023-04-23T23:53:48.927Z,0
2023-04-23T23:55:29.258Z,0
2023-04-23T23:57:09.672Z,0
2023-04-23T23:58:50.131Z,0
